createdAt,value
2019-03-28T00:01:40.059Z,99.90
2019-03-28T00:04:09.587Z,99.90
2019-03-28T00:06:39.073Z,99.90
2019-03-28T00:09:09.641Z,99.90
2019-03-28T00:11:39.181Z,99.90
2019-03-28T00:14:10.178Z,99.90
2019-03-28T00:16:39.666Z,99.90
2019-03-28T00:19:09.191Z,99.90
2019-03-28T00:21:38.673Z,99.90
2019-03-28T00:24:09.801Z,99.90
2019-03-28T00:26:39.322Z,99.90
2019-03-28T00:29:08.801Z,99.90
2019-03-28T00:31:38.322Z,99.90
2019-03-28T00:34:07.802Z,99.90
2019-03-28T00:36:37.269Z,99.90
2019-03-28T00:39:07.711Z,99.90
2019-03-28T00:41:37.260Z,99.90
2019-03-28T00:44:06.813Z,99.90
2019-03-28T00:46:36.275Z,99.90
2019-03-28T00:49:25.107Z,99.90
2019-03-28T00:51:54.627Z,99.90
2019-03-28T00:54:24.114Z,99.90
2019-03-28T00:56:53.642Z,99.90
2019-03-28T00:59:23.239Z,99.90
2019-03-28T01:01:52.732Z,99.90
2019-03-28T01:04:22.233Z,99.90
2019-03-28T01:06:51.707Z,99.90
2019-03-28T01:09:21.372Z,99.90
2019-03-28T01:11:50.892Z,99.90
2019-03-28T01:14:20.360Z,99.90
2019-03-28T01:16:49.857Z,99.90
2019-03-28T01:19:19.395Z,99.90
2019-03-28T01:21:48.873Z,99.90
2019-03-28T01:24:18.361Z,99.90
2019-03-28T01:26:57.101Z,99.90
2019-03-28T01:29:19.057Z,99.90
2019-03-28T01:31:51.525Z,99.90
2019-03-28T01:34:21.250Z,99.90
2019-03-28T01:36:50.719Z,99.90
2019-03-28T01:39:20.191Z,99.90
2019-03-28T01:41:49.726Z,99.90
2019-03-28T01:44:20.718Z,99.90
2019-03-28T01:46:50.308Z,99.90
2019-03-28T01:49:20.085Z,99.90
2019-03-28T01:51:49.592Z,99.90
2019-03-28T01:54:19.061Z,99.90
2019-03-28T01:56:48.584Z,99.90
2019-03-28T01:59:18.089Z,99.90
2019-03-28T02:01:47.593Z,99.90
2019-03-28T02:04:17.098Z,99.90
2019-03-28T02:06:46.558Z,99.90
2019-03-28T02:09:16.065Z,99.90
2019-03-28T02:11:45.558Z,99.90
2019-03-28T02:14:15.117Z,99.90
2019-03-28T02:16:44.588Z,99.90
2019-03-28T02:19:15.598Z,99.90
2019-03-28T02:21:45.084Z,99.90
2019-03-28T02:24:14.568Z,99.90
2019-03-28T02:26:44.070Z,99.90
2019-03-28T02:29:13.654Z,99.90
2019-03-28T02:31:43.348Z,99.90
2019-03-28T02:34:12.940Z,99.90
2019-03-28T02:36:42.415Z,99.90
2019-03-28T02:39:11.882Z,99.90
2019-03-28T02:41:41.387Z,99.90
2019-03-28T02:44:11.883Z,99.90
2019-03-28T02:46:41.701Z,99.90
2019-03-28T02:49:30.568Z,99.90
2019-03-28T02:52:19.343Z,99.90
2019-03-28T02:54:48.879Z,99.90
2019-03-28T02:57:18.369Z,99.90
2019-03-28T02:59:47.832Z,99.90
2019-03-28T03:02:17.354Z,99.90
2019-03-28T03:04:46.922Z,99.90
2019-03-28T03:07:16.400Z,99.90
2019-03-28T03:09:45.992Z,99.90
2019-03-28T03:12:15.463Z,99.90
2019-03-28T03:14:44.937Z,99.90
2019-03-28T03:17:15.765Z,99.90
2019-03-28T03:19:45.397Z,99.90
2019-03-28T03:22:16.387Z,99.90
2019-03-28T03:24:45.918Z,99.90
2019-03-28T03:27:15.400Z,99.90
2019-03-28T03:29:44.889Z,99.90
2019-03-28T03:32:14.421Z,99.90
2019-03-28T03:34:43.881Z,99.90
2019-03-28T03:37:13.386Z,99.90
2019-03-28T03:39:42.891Z,99.90
2019-03-28T03:42:12.735Z,99.90
2019-03-28T03:44:42.357Z,99.90
2019-03-28T03:47:12.308Z,99.90
2019-03-28T03:49:41.816Z,99.90
2019-03-28T03:52:11.304Z,99.90
2019-03-28T03:54:40.777Z,99.90
2019-03-28T03:57:10.239Z,99.90
2019-03-28T03:59:39.717Z,99.90
2019-03-28T04:02:09.310Z,99.90
2019-03-28T04:04:38.809Z,99.90
2019-03-28T04:07:08.309Z,99.90
2019-03-28T04:09:37.954Z,99.90
2019-03-28T04:12:07.438Z,99.90
2019-03-28T04:14:37.096Z,99.90
2019-03-28T04:17:06.580Z,99.90
2019-03-28T04:19:36.145Z,99.90
2019-03-28T04:22:05.604Z,99.90
2019-03-28T04:24:35.127Z,99.90
2019-03-28T04:27:06.059Z,99.90
2019-03-28T04:29:35.447Z,99.90
2019-03-28T04:32:04.986Z,99.90
2019-03-28T04:34:34.443Z,99.90
2019-03-28T04:37:03.955Z,99.90
2019-03-28T04:39:33.555Z,99.90
2019-03-28T04:42:03.038Z,99.90
2019-03-28T04:44:32.527Z,99.90
2019-03-28T04:47:02.028Z,99.90
2019-03-28T04:49:31.677Z,99.90
2019-03-28T04:52:01.246Z,99.90
2019-03-28T04:54:30.745Z,99.90
2019-03-28T04:57:00.307Z,99.90
2019-03-28T04:59:29.751Z,99.90
2019-03-28T05:02:03.413Z,99.90
2019-03-28T05:04:51.268Z,99.90
2019-03-28T05:07:40.120Z,99.90
2019-03-28T05:10:11.350Z,99.90
2019-03-28T05:12:40.822Z,99.90
2019-03-28T05:15:11.048Z,99.90
2019-03-28T05:17:43.254Z,99.90
2019-03-28T05:20:13.653Z,99.90
2019-03-28T05:22:43.248Z,99.90
2019-03-28T05:25:13.220Z,99.90
2019-03-28T05:27:42.637Z,99.90
2019-03-28T05:30:13.338Z,99.90
2019-03-28T05:32:42.909Z,99.90
2019-03-28T05:35:14.087Z,99.90
2019-03-28T05:37:43.887Z,99.90
2019-03-28T05:40:14.006Z,99.90
2019-03-28T05:42:43.490Z,99.90
2019-03-28T05:45:14.779Z,99.90
2019-03-28T05:47:45.871Z,99.90
2019-03-28T05:50:15.416Z,99.90
2019-03-28T05:52:45.117Z,99.90
2019-03-28T05:55:14.624Z,99.90
2019-03-28T05:57:44.126Z,99.90
2019-03-28T06:00:15.169Z,99.90
2019-03-28T06:02:44.674Z,99.90
2019-03-28T06:05:14.248Z,99.90
2019-03-28T06:07:43.797Z,99.90
2019-03-28T06:10:16.352Z,99.90
2019-03-28T06:12:45.351Z,99.90
2019-03-28T06:15:15.262Z,99.90
2019-03-28T06:17:44.711Z,99.90
2019-03-28T06:20:14.787Z,99.90
2019-03-28T06:22:47.203Z,99.90
2019-03-28T06:25:16.671Z,99.90
2019-03-28T06:27:51.837Z,99.90
2019-03-28T06:30:21.731Z,99.90
2019-03-28T06:32:51.237Z,99.90
2019-03-28T06:35:21.977Z,99.90
2019-03-28T06:37:51.724Z,99.90
2019-03-28T06:40:21.195Z,99.90
2019-03-28T06:42:50.661Z,99.90
2019-03-28T06:45:20.239Z,99.90
2019-03-28T06:47:49.711Z,99.90
2019-03-28T06:50:19.395Z,99.90
2019-03-28T06:52:48.928Z,99.90
2019-03-28T06:55:18.486Z,99.90
2019-03-28T06:57:47.991Z,99.90
2019-03-28T07:00:20.041Z,94.60
2019-03-28T07:02:49.527Z,93.40
2019-03-28T07:05:19.207Z,85.30
2019-03-28T07:07:48.781Z,78.40
2019-03-28T07:10:18.565Z,70.90
2019-03-28T07:12:48.055Z,61.10
2019-03-28T07:15:18.045Z,56.30
2019-03-28T07:17:47.531Z,53.40
2019-03-28T07:20:17.346Z,49.90
2019-03-28T07:22:46.883Z,47.60
2019-03-28T07:25:16.428Z,46.10
2019-03-28T07:27:45.933Z,46.00
2019-03-28T07:30:16.492Z,44.30
2019-03-28T07:32:45.998Z,43.20
2019-03-28T07:35:17.049Z,42.70
2019-03-28T07:38:05.964Z,41.50
2019-03-28T07:40:35.437Z,41.40
2019-03-28T07:43:05.136Z,45.70
2019-03-28T07:45:34.778Z,44.90
2019-03-28T07:48:04.738Z,49.00
2019-03-28T07:50:34.245Z,54.20
2019-03-28T07:53:03.770Z,50.10
2019-03-28T07:55:33.270Z,45.30
2019-03-28T07:58:02.774Z,43.00
2019-03-28T08:00:32.555Z,39.80
2019-03-28T08:03:02.058Z,39.70
2019-03-28T08:05:51.340Z,38.60
2019-03-28T08:08:20.821Z,37.00
2019-03-28T08:10:50.329Z,38.30
2019-03-28T08:13:19.856Z,36.90
2019-03-28T08:15:49.364Z,35.70
2019-03-28T08:18:19.493Z,35.40
2019-03-28T08:20:49.173Z,43.00
2019-03-28T08:23:18.742Z,49.20
2019-03-28T08:25:51.292Z,51.40
2019-03-28T08:28:20.843Z,54.00
2019-03-28T08:30:50.382Z,60.80
2019-03-28T08:33:19.892Z,56.40
2019-03-28T08:35:50.550Z,50.20
2019-03-28T08:38:29.819Z,51.40
2019-03-28T08:40:59.331Z,59.60
2019-03-28T08:43:28.811Z,55.90
2019-03-28T08:45:58.315Z,52.30
2019-03-28T08:48:27.933Z,53.60
2019-03-28T08:50:57.657Z,49.10
2019-03-28T08:53:27.133Z,47.10
2019-03-28T08:55:56.624Z,46.30
2019-03-28T08:58:26.131Z,41.80
2019-03-28T09:00:55.818Z,43.10
2019-03-28T09:03:25.753Z,50.10
2019-03-28T09:05:55.249Z,53.10
2019-03-28T09:08:24.737Z,57.50
2019-03-28T09:10:54.268Z,50.70
2019-03-28T09:13:23.768Z,49.20
2019-03-28T09:15:53.205Z,49.90
2019-03-28T09:18:22.729Z,46.80
2019-03-28T09:20:52.675Z,47.30
2019-03-28T09:23:22.342Z,47.10
2019-03-28T09:25:51.934Z,52.50
2019-03-28T09:28:21.496Z,50.40
2019-03-28T09:30:51.135Z,51.90
2019-03-28T09:33:27.841Z,45.40
2019-03-28T09:35:57.347Z,45.50
2019-03-28T09:38:26.922Z,47.40
2019-03-28T09:40:56.527Z,47.20
2019-03-28T09:43:25.998Z,49.40
2019-03-28T09:45:55.522Z,48.70
2019-03-28T09:48:25.009Z,48.10
2019-03-28T09:50:54.491Z,44.90
2019-03-28T09:53:24.065Z,47.30
2019-03-28T09:55:53.561Z,48.20
2019-03-28T09:58:23.042Z,45.10
2019-03-28T10:01:02.872Z,44.80
2019-03-28T10:03:25.469Z,48.80
2019-03-28T10:05:54.976Z,47.60
2019-03-28T10:08:24.469Z,48.20
2019-03-28T10:10:54.017Z,44.90
2019-03-28T10:13:25.100Z,42.20
2019-03-28T10:16:13.943Z,39.30
2019-03-28T10:18:43.444Z,38.40
2019-03-28T10:21:13.053Z,41.40
2019-03-28T10:23:42.675Z,42.20
2019-03-28T10:26:12.190Z,43.20
2019-03-28T10:28:41.689Z,47.00
2019-03-28T10:31:16.558Z,46.10
2019-03-28T10:33:42.927Z,46.80
2019-03-28T10:36:12.453Z,45.90
2019-03-28T10:38:42.013Z,45.40
2019-03-28T10:41:11.536Z,44.60
2019-03-28T10:43:41.060Z,42.60
2019-03-28T10:46:10.714Z,44.10
2019-03-28T10:48:40.183Z,44.10
2019-03-28T10:51:29.056Z,44.70
2019-03-28T10:53:58.546Z,43.30
2019-03-28T10:56:28.050Z,43.40
2019-03-28T10:58:57.543Z,45.30
2019-03-28T11:01:41.929Z,45.20
2019-03-28T11:04:04.500Z,47.20
2019-03-28T11:06:34.046Z,43.70
2019-03-28T11:09:05.068Z,47.00
2019-03-28T11:11:44.196Z,45.30
2019-03-28T11:14:13.668Z,46.80
2019-03-28T11:16:43.132Z,44.10
2019-03-28T11:19:15.647Z,43.10
2019-03-28T11:21:43.882Z,44.50
2019-03-28T11:24:13.407Z,45.80
2019-03-28T11:26:42.997Z,45.60
2019-03-28T11:29:12.502Z,44.40
2019-03-28T11:31:46.807Z,45.40
2019-03-28T11:34:13.369Z,45.10
2019-03-28T11:36:42.856Z,46.20
2019-03-28T11:39:12.592Z,46.80
2019-03-28T11:41:42.076Z,47.20
2019-03-28T11:44:11.799Z,47.70
2019-03-28T11:46:44.406Z,47.20
2019-03-28T11:49:13.976Z,45.30
2019-03-28T11:51:43.490Z,47.80
2019-03-28T11:54:12.977Z,45.80
2019-03-28T11:56:42.557Z,46.40
2019-03-28T11:59:12.052Z,47.30
2019-03-28T12:01:43.069Z,49.00
2019-03-28T12:04:12.735Z,48.60
2019-03-28T12:06:42.336Z,46.40
2019-03-28T12:09:12.304Z,48.80
2019-03-28T12:11:43.531Z,48.60
2019-03-28T12:14:13.034Z,45.50
2019-03-28T12:16:42.503Z,43.50
2019-03-28T12:19:12.072Z,44.60
2019-03-28T12:21:41.574Z,42.80
2019-03-28T12:24:11.081Z,47.40
2019-03-28T12:26:40.606Z,46.50
2019-03-28T12:29:10.113Z,45.30
2019-03-28T12:31:39.590Z,44.30
2019-03-28T12:34:09.146Z,42.60
2019-03-28T12:36:38.650Z,46.40
2019-03-28T12:39:08.386Z,45.80
2019-03-28T12:41:38.086Z,45.70
2019-03-28T12:44:07.653Z,46.10
2019-03-28T12:46:37.128Z,44.30
2019-03-28T12:49:06.657Z,45.90
2019-03-28T12:51:36.145Z,47.20
2019-03-28T12:54:05.639Z,46.80
2019-03-28T12:56:35.179Z,44.80
2019-03-28T12:59:04.771Z,43.60
2019-03-28T13:01:34.274Z,46.00
2019-03-28T13:04:03.868Z,48.30
2019-03-28T13:06:33.572Z,47.90
2019-03-28T13:09:03.412Z,45.30
2019-03-28T13:11:32.977Z,43.80
2019-03-28T13:14:02.472Z,50.30
2019-03-28T13:16:31.943Z,49.90
2019-03-28T13:19:01.444Z,50.30
2019-03-28T13:21:30.929Z,51.00
2019-03-28T13:24:00.470Z,50.30
2019-03-28T13:26:29.987Z,51.20
2019-03-28T13:28:59.496Z,51.50
2019-03-28T13:31:29.072Z,51.70
2019-03-28T13:33:58.618Z,51.50
2019-03-28T13:36:28.117Z,49.10
2019-03-28T13:38:57.667Z,48.10
2019-03-28T13:41:27.223Z,45.00
2019-03-28T13:43:56.897Z,45.50
2019-03-28T13:46:26.528Z,50.10
2019-03-28T13:48:56.043Z,49.20
2019-03-28T13:51:35.885Z,49.00
2019-03-28T13:54:05.414Z,48.30
2019-03-28T13:56:34.921Z,47.50
2019-03-28T13:59:05.781Z,47.20
2019-03-28T14:01:35.567Z,48.30
2019-03-28T14:04:07.810Z,50.90
2019-03-28T14:06:37.299Z,50.00
2019-03-28T14:09:08.158Z,48.50
2019-03-28T14:11:37.631Z,46.80
2019-03-28T14:14:07.140Z,50.00
2019-03-28T14:16:36.623Z,51.10
2019-03-28T14:19:07.625Z,52.20
2019-03-28T14:21:56.444Z,49.40
2019-03-28T14:24:25.951Z,48.30
2019-03-28T14:26:55.452Z,48.50
2019-03-28T14:29:24.963Z,47.90
2019-03-28T14:31:54.515Z,48.20
2019-03-28T14:34:25.022Z,49.00
2019-03-28T14:36:54.525Z,50.20
2019-03-28T14:39:24.006Z,52.70
2019-03-28T14:42:12.799Z,54.70
2019-03-28T14:44:42.660Z,54.40
2019-03-28T14:47:13.798Z,49.40
2019-03-28T14:49:43.558Z,49.20
2019-03-28T14:52:13.110Z,51.40
2019-03-28T14:54:42.615Z,53.70
2019-03-28T14:57:14.297Z,56.80
2019-03-28T15:00:05.270Z,56.60
2019-03-28T15:02:34.771Z,60.10
2019-03-28T15:05:05.991Z,61.00
2019-03-28T15:07:35.460Z,60.30
2019-03-28T15:10:07.818Z,58.80
2019-03-28T15:12:37.314Z,57.50
2019-03-28T15:15:26.132Z,56.40
2019-03-28T15:17:55.600Z,58.50
2019-03-28T15:20:27.500Z,60.70
2019-03-28T15:23:15.704Z,61.00
2019-03-28T15:26:04.713Z,64.10
2019-03-28T15:28:34.240Z,67.80
2019-03-28T15:31:03.734Z,67.70
2019-03-28T15:33:39.380Z,69.90
2019-03-28T15:36:04.553Z,72.60
2019-03-28T15:38:34.055Z,70.40
2019-03-28T15:41:03.538Z,65.90
2019-03-28T15:43:33.071Z,67.30
2019-03-28T15:46:03.486Z,67.30
2019-03-28T15:48:32.962Z,66.50
2019-03-28T15:51:02.824Z,68.50
2019-03-28T15:53:32.311Z,68.40
2019-03-28T15:56:01.784Z,68.70
2019-03-28T15:58:33.594Z,68.70
2019-03-28T16:01:03.206Z,70.80
2019-03-28T16:03:52.120Z,72.00
2019-03-28T16:06:10.031Z,74.00
2019-03-28T16:08:39.492Z,73.80
2019-03-28T16:11:14.976Z,75.30
2019-03-28T16:13:46.049Z,74.40
2019-03-28T16:16:15.719Z,71.70
2019-03-28T16:18:45.189Z,75.50
2019-03-28T16:21:15.008Z,76.20
2019-03-28T16:24:03.870Z,79.00
2019-03-28T16:26:33.376Z,78.20
2019-03-28T16:29:02.976Z,78.20
2019-03-28T16:31:32.559Z,76.30
2019-03-28T16:34:07.193Z,81.00
2019-03-28T16:36:33.330Z,79.30
2019-03-28T16:39:04.372Z,79.10
2019-03-28T16:41:34.288Z,81.50
2019-03-28T16:44:03.999Z,80.40
2019-03-28T16:46:33.706Z,83.50
2019-03-28T16:49:03.288Z,89.20
2019-03-28T16:51:32.860Z,91.80
2019-03-28T16:54:02.347Z,92.60
2019-03-28T16:56:51.183Z,92.60
2019-03-28T16:59:20.756Z,93.00
2019-03-28T17:01:50.318Z,94.60
2019-03-28T17:04:21.425Z,95.90
2019-03-28T17:06:52.689Z,96.00
2019-03-28T17:09:41.576Z,96.60
2019-03-28T17:12:13.753Z,95.90
2019-03-28T17:14:43.224Z,97.60
2019-03-28T17:17:12.943Z,98.90
2019-03-28T17:19:42.958Z,99.40
2019-03-28T17:22:12.858Z,99.90
2019-03-28T17:24:42.560Z,99.90
2019-03-28T17:27:12.070Z,99.90
2019-03-28T17:29:41.575Z,99.90
2019-03-28T17:32:11.229Z,99.90
2019-03-28T17:34:45.751Z,99.90
2019-03-28T17:37:13.566Z,99.90
2019-03-28T17:39:43.078Z,99.90
2019-03-28T17:42:12.584Z,99.90
2019-03-28T17:44:42.064Z,99.90
2019-03-28T17:47:11.823Z,99.90
2019-03-28T17:49:41.343Z,99.90
2019-03-28T17:52:10.906Z,99.90
2019-03-28T17:54:40.519Z,99.90
2019-03-28T17:57:10.001Z,99.90
2019-03-28T17:59:39.584Z,99.90
2019-03-28T18:02:09.110Z,99.90
2019-03-28T18:04:47.899Z,99.90
2019-03-28T18:07:09.785Z,99.90
2019-03-28T18:09:39.277Z,99.90
2019-03-28T18:12:08.760Z,99.90
2019-03-28T18:14:38.236Z,99.90
2019-03-28T18:17:07.773Z,99.90
2019-03-28T18:19:37.302Z,99.90
2019-03-28T18:22:06.811Z,99.90
2019-03-28T18:24:36.604Z,99.90
2019-03-28T18:27:06.312Z,99.90
2019-03-28T18:29:36.148Z,99.90
2019-03-28T18:32:05.642Z,99.90
2019-03-28T18:34:35.106Z,99.90
2019-03-28T18:37:06.120Z,99.90
2019-03-28T18:39:35.605Z,99.90
2019-03-28T18:42:05.432Z,99.90
2019-03-28T18:44:34.944Z,99.90
2019-03-28T18:47:04.741Z,99.90
2019-03-28T18:49:46.638Z,99.90
2019-03-28T18:52:16.138Z,99.90
2019-03-28T18:54:45.634Z,99.90
2019-03-28T18:57:15.136Z,99.90
2019-03-28T18:59:44.685Z,99.90
2019-03-28T19:02:14.311Z,99.90
2019-03-28T19:04:43.883Z,99.90
2019-03-28T19:07:13.401Z,99.90
2019-03-28T19:09:42.862Z,99.90
2019-03-28T19:12:12.338Z,99.90
2019-03-28T19:14:41.876Z,99.90
2019-03-28T19:17:11.347Z,99.90
2019-03-28T19:19:40.847Z,99.90
2019-03-28T19:22:10.392Z,99.90
2019-03-28T19:24:39.852Z,99.90
2019-03-28T19:27:09.324Z,99.90
2019-03-28T19:29:38.862Z,99.90
2019-03-28T19:32:08.332Z,99.90
2019-03-28T19:34:57.284Z,99.90
2019-03-28T19:37:27.287Z,99.90
2019-03-28T19:39:56.756Z,99.90
2019-03-28T19:42:26.263Z,99.90
2019-03-28T19:44:56.576Z,99.90
2019-03-28T19:47:28.513Z,99.90
2019-03-28T19:50:19.641Z,99.90
2019-03-28T19:52:49.145Z,99.90
2019-03-28T19:55:23.432Z,99.90
2019-03-28T19:57:53.292Z,99.90
2019-03-28T20:00:22.832Z,99.90
2019-03-28T20:02:52.343Z,99.90
2019-03-28T20:05:23.382Z,99.90
2019-03-28T20:07:53.308Z,99.90
2019-03-28T20:10:22.818Z,99.90
2019-03-28T20:12:52.326Z,99.90
2019-03-28T20:15:22.069Z,99.90
2019-03-28T20:17:51.704Z,99.90
2019-03-28T20:20:21.228Z,99.90
2019-03-28T20:22:50.697Z,99.90
2019-03-28T20:25:20.166Z,99.90
2019-03-28T20:27:49.929Z,99.90
2019-03-28T20:30:23.819Z,99.90
2019-03-28T20:32:53.302Z,99.90
2019-03-28T20:35:23.278Z,99.90
2019-03-28T20:37:52.805Z,99.90
2019-03-28T20:40:24.646Z,99.90
2019-03-28T20:42:54.227Z,99.90
2019-03-28T20:45:24.244Z,99.90
2019-03-28T20:47:53.732Z,99.90
2019-03-28T20:50:23.769Z,99.90
2019-03-28T20:52:53.226Z,99.90
2019-03-28T20:55:22.696Z,99.90
2019-03-28T20:57:52.173Z,99.90
2019-03-28T21:00:26.214Z,99.90
2019-03-28T21:02:56.464Z,99.90
2019-03-28T21:05:25.983Z,99.90
2019-03-28T21:07:55.443Z,99.90
2019-03-28T21:10:26.166Z,99.90
2019-03-28T21:12:55.953Z,99.90
2019-03-28T21:15:25.404Z,99.90
2019-03-28T21:17:54.881Z,99.90
2019-03-28T21:20:24.361Z,99.90
2019-03-28T21:22:53.850Z,99.90
2019-03-28T21:25:23.338Z,99.90
2019-03-28T21:27:52.899Z,99.90
2019-03-28T21:30:22.464Z,99.90
2019-03-28T21:32:55.727Z,99.90
2019-03-28T21:35:42.457Z,99.90
2019-03-28T21:38:12.112Z,99.90
2019-03-28T21:40:41.601Z,99.90
2019-03-28T21:43:11.105Z,99.90
2019-03-28T21:45:40.870Z,99.90
2019-03-28T21:48:10.401Z,99.90
2019-03-28T21:50:40.057Z,99.90
2019-03-28T21:53:09.538Z,99.90
2019-03-28T21:55:39.040Z,99.90
2019-03-28T21:58:08.546Z,99.90
2019-03-28T22:00:38.062Z,99.90
2019-03-28T22:03:07.598Z,99.90
2019-03-28T22:05:37.189Z,99.90
2019-03-28T22:08:07.030Z,99.90
2019-03-28T22:10:36.611Z,99.90
2019-03-28T22:13:06.436Z,99.90
2019-03-28T22:15:40.419Z,99.90
2019-03-28T22:18:09.885Z,99.90
2019-03-28T22:20:39.424Z,99.90
2019-03-28T22:23:08.984Z,99.90
2019-03-28T22:25:41.320Z,99.90
2019-03-28T22:28:10.818Z,99.90
2019-03-28T22:30:41.792Z,99.90
2019-03-28T22:33:11.475Z,99.90
2019-03-28T22:36:00.376Z,99.90
2019-03-28T22:38:29.828Z,99.90
2019-03-28T22:40:59.317Z,99.90
2019-03-28T22:43:28.909Z,99.90
2019-03-28T22:46:00.092Z,99.90
2019-03-28T22:48:29.575Z,99.90
2019-03-28T22:51:00.590Z,99.90
2019-03-28T22:53:30.076Z,99.90
2019-03-28T22:56:18.892Z,99.90
2019-03-28T22:58:48.401Z,99.90
2019-03-28T23:01:18.559Z,99.90
2019-03-28T23:03:48.181Z,99.90
2019-03-28T23:06:17.846Z,99.90
2019-03-28T23:08:48.876Z,99.90
2019-03-28T23:11:18.483Z,99.90
2019-03-28T23:13:48.072Z,99.90
2019-03-28T23:16:19.225Z,99.90
2019-03-28T23:18:48.746Z,99.90
2019-03-28T23:21:19.777Z,99.90
2019-03-28T23:23:49.271Z,99.90
2019-03-28T23:26:18.816Z,99.90
2019-03-28T23:28:48.302Z,99.90
2019-03-28T23:31:17.825Z,99.90
2019-03-28T23:33:47.299Z,99.90
2019-03-28T23:36:16.877Z,99.90
2019-03-28T23:38:46.331Z,99.90
2019-03-28T23:41:15.989Z,99.90
2019-03-28T23:43:45.553Z,99.90
2019-03-28T23:46:15.134Z,99.90
2019-03-28T23:48:46.176Z,99.90
2019-03-28T23:51:16.299Z,99.90
2019-03-28T23:53:47.301Z,99.90
2019-03-28T23:56:16.808Z,99.90
2019-03-28T23:58:46.884Z,99.90
